Time;durP1;ratioP1;P1;durP2;ratioP2;P2;SDS_P1;SDS_P2;PMS_P1;PMS_P2;Temp;Humidity;BMP_temperature;BMP_pressure;BME280_temperature;BME280_humidity;BME280_pressure;Samples;Min_cycle;Max_cycle;Signal;HPM_P1;HPM_P2
2022/06/21 00:02:14;;;;;;;10.40;2.83;;;14.10;99.90;;;;;;5084122;28;20428;-57
2022/06/21 00:04:40;;;;;;;8.10;3.00;;;14.10;99.90;;;;;;5085074;28;20417;-56
2022/06/21 00:07:09;;;;;;;8.70;3.05;;;14.10;99.90;;;;;;5085635;28;20437;-57
2022/06/21 00:09:35;;;;;;;9.23;2.80;;;14.10;99.90;;;;;;5086292;28;20374;-56
2022/06/21 00:12:00;;;;;;;9.50;2.80;;;14.10;99.90;;;;;;5086466;28;20401;-57
2022/06/21 00:14:26;;;;;;;9.57;3.50;;;14.00;99.90;;;;;;5087863;28;20704;-55
2022/06/21 00:16:52;;;;;;;10.57;3.27;;;14.00;99.90;;;;;;5088949;28;20390;-56
2022/06/21 00:19:21;;;;;;;13.82;3.42;;;14.00;99.90;;;;;;5088877;28;20402;-58
2022/06/21 00:21:47;;;;;;;9.73;3.10;;;14.00;99.90;;;;;;5091794;28;20551;-58
2022/06/21 00:24:16;;;;;;;9.97;3.43;;;14.00;99.90;;;;;;5091754;28;20777;-57
2022/06/21 00:26:43;;;;;;;10.90;3.38;;;14.00;99.90;;;;;;5091078;28;20725;-58
2022/06/21 00:29:09;;;;;;;10.85;3.35;;;14.00;99.90;;;;;;5091596;28;20383;-55
2022/06/21 00:31:37;;;;;;;10.75;3.35;;;14.00;99.90;;;;;;5090795;28;20435;-57
2022/06/21 00:34:19;;;;;;;16.83;4.22;;;13.90;99.90;;;;;;5089463;28;20479;-57
2022/06/21 00:36:45;;;;;;;12.82;3.53;;;13.90;99.90;;;;;;5092612;28;20394;-57
2022/06/21 00:39:17;;;;;;;12.20;3.45;;;13.80;99.90;;;;;;5092564;28;20411;-58
2022/06/21 00:41:47;;;;;;;14.43;3.47;;;13.90;99.90;;;;;;5091533;28;20493;-58
2022/06/21 00:44:36;;;;;;;11.70;3.67;;;13.90;99.90;;;;;;5090926;28;20378;-58
2022/06/21 00:47:13;;;;;;;12.20;3.83;;;13.90;99.90;;;;;;5089873;28;20820;-58
2022/06/21 00:49:54;;;;;;;13.70;3.75;;;13.80;99.90;;;;;;5091480;28;20414;-58
2022/06/21 00:52:44;;;;;;;13.35;3.42;;;13.90;99.90;;;;;;5091428;28;20529;-55
2022/06/21 00:55:19;;;;;;;10.27;3.33;;;13.80;99.90;;;;;;5092251;28;20505;-59
2022/06/21 00:57:52;;;;;;;15.20;4.13;;;13.90;99.90;;;;;;5092102;28;20441;-59
2022/06/21 01:00:32;;;;;;;13.43;3.78;;;13.80;99.90;;;;;;5094231;28;20847;-58
2022/06/21 01:03:03;;;;;;;14.13;4.18;;;13.80;99.90;;;;;;5094008;28;20514;-56
2022/06/21 01:05:34;;;;;;;13.23;3.33;;;13.80;99.90;;;;;;5094729;28;20421;-58
2022/06/21 01:08:00;;;;;;;15.32;4.07;;;13.70;99.90;;;;;;5093991;28;20766;-57
2022/06/21 01:10:27;;;;;;;9.23;3.40;;;13.70;99.90;;;;;;5093876;28;20708;-58
2022/06/21 01:13:10;;;;;;;14.18;3.90;;;13.70;99.90;;;;;;5092563;28;20427;-58
2022/06/21 01:15:40;;;;;;;13.05;3.45;;;13.80;99.90;;;;;;5092565;28;20493;-58
2022/06/21 01:18:08;;;;;;;13.82;4.13;;;13.80;99.90;;;;;;5093370;28;20378;-58
2022/06/21 01:20:38;;;;;;;14.68;4.13;;;13.70;99.90;;;;;;5093793;28;20413;-59
2022/06/21 01:23:29;;;;;;;15.32;4.25;;;13.70;99.90;;;;;;5093345;28;20780;-58
2022/06/21 01:26:04;;;;;;;16.08;4.05;;;13.70;99.90;;;;;;5095847;28;20471;-56
2022/06/21 01:28:31;;;;;;;12.13;3.75;;;13.80;99.90;;;;;;5095840;28;20386;-58
2022/06/21 01:30:58;;;;;;;17.25;4.30;;;13.80;99.90;;;;;;5094732;28;20374;-59
2022/06/21 01:33:30;;;;;;;14.25;3.90;;;13.70;99.90;;;;;;5093304;28;20393;-58
2022/06/21 01:35:59;;;;;;;14.67;4.37;;;13.70;99.90;;;;;;5093665;28;20490;-54
2022/06/21 01:38:37;;;;;;;13.00;3.80;;;13.70;99.90;;;;;;5092152;28;20638;-55
2022/06/21 01:41:10;;;;;;;18.88;4.68;;;13.60;99.90;;;;;;5091794;28;20389;-56
2022/06/21 01:43:40;;;;;;;15.40;4.43;;;13.60;99.90;;;;;;5092974;28;20390;-58
2022/06/21 01:46:09;;;;;;;19.02;4.95;;;13.50;99.90;;;;;;5091343;28;20750;-58
2022/06/21 01:48:40;;;;;;;14.02;4.03;;;13.60;99.90;;;;;;5092593;28;20378;-55
2022/06/21 01:51:19;;;;;;;17.92;4.15;;;13.60;99.90;;;;;;5094048;28;20889;-58
2022/06/21 01:53:45;;;;;;;16.23;4.22;;;13.50;99.90;;;;;;5093452;28;20378;-57
2022/06/21 01:56:18;;;;;;;13.53;3.80;;;13.50;99.90;;;;;;5091755;28;20393;-57
2022/06/21 01:58:52;;;;;;;14.40;4.45;;;13.50;99.90;;;;;;5093699;28;20386;-58
2022/06/21 02:01:24;;;;;;;13.73;3.80;;;13.50;99.90;;;;;;5093034;28;20374;-56
2022/06/21 02:03:53;;;;;;;19.08;4.97;;;13.50;99.90;;;;;;5092844;28;20390;-55
2022/06/21 02:06:21;;;;;;;16.23;4.27;;;13.50;99.90;;;;;;5092277;28;20739;-57
2022/06/21 02:08:57;;;;;;;19.92;4.72;;;13.40;99.90;;;;;;5091582;28;20386;-54
2022/06/21 02:11:28;;;;;;;15.75;5.00;;;13.40;99.90;;;;;;5092089;28;20878;-57
2022/06/21 02:16:47;;;;;;;20.55;5.13;;;13.40;99.90;;;;;;5091033;28;20420;-55
2022/06/21 02:19:30;;;;;;;17.30;5.00;;;13.40;99.90;;;;;;5092127;28;20393;-58
2022/06/21 02:21:55;;;;;;;16.58;5.07;;;13.30;99.90;;;;;;5092056;28;20959;-57
2022/06/21 02:24:23;;;;;;;18.30;4.80;;;13.30;99.90;;;;;;5094254;28;20381;-58
2022/06/21 02:26:51;;;;;;;14.90;4.75;;;13.30;99.90;;;;;;5092964;28;20405;-58
2022/06/21 02:29:17;;;;;;;15.63;4.57;;;13.30;99.90;;;;;;5093931;28;20631;-57
2022/06/21 02:31:44;;;;;;;17.98;4.70;;;13.30;99.90;;;;;;5094941;28;20782;-57
2022/06/21 02:34:33;;;;;;;14.32;4.13;;;13.30;99.90;;;;;;5094558;28;20424;-57
2022/06/21 02:37:02;;;;;;;18.13;4.70;;;13.30;99.90;;;;;;5075077;28;20691;-58
2022/06/21 02:39:30;;;;;;;13.83;4.30;;;13.20;99.90;;;;;;5091956;28;20666;-57
2022/06/21 02:42:05;;;;;;;21.77;4.95;;;13.20;99.90;;;;;;5091844;28;20385;-57
2022/06/21 02:44:54;;;;;;;17.77;4.22;;;13.20;99.90;;;;;;5091061;28;20486;-57
2022/06/21 02:47:27;;;;;;;18.67;5.32;;;13.20;99.90;;;;;;5091947;28;20813;-56
2022/06/21 02:50:00;;;;;;;13.90;4.10;;;13.20;99.90;;;;;;5089959;28;20770;-58
2022/06/21 02:52:30;;;;;;;18.75;4.97;;;13.10;99.90;;;;;;5088398;28;20444;-57
2022/06/21 02:55:03;;;;;;;16.60;4.22;;;13.10;99.90;;;;;;5087326;28;20382;-56
2022/06/21 02:57:40;;;;;;;13.13;4.20;;;13.10;99.90;;;;;;5089340;28;20424;-57
2022/06/21 03:00:10;;;;;;;14.48;4.82;;;13.10;99.90;;;;;;5091583;28;20390;-58
2022/06/21 03:02:36;;;;;;;17.88;4.50;;;13.10;99.90;;;;;;5089753;28;20486;-58
2022/06/21 03:05:05;;;;;;;12.37;3.80;;;13.10;99.90;;;;;;5090837;28;20512;-56
2022/06/21 03:07:39;;;;;;;13.68;4.10;;;13.00;99.90;;;;;;5092252;28;20496;-58
2022/06/21 03:10:16;;;;;;;15.50;4.47;;;13.00;99.90;;;;;;5089094;28;20952;-58
2022/06/21 03:12:42;;;;;;;13.75;4.65;;;13.00;99.90;;;;;;5089600;28;20830;-58
2022/06/21 03:15:10;;;;;;;16.17;4.35;;;13.00;99.90;;;;;;5088550;28;20941;-57
2022/06/21 03:18:02;;;;;;;15.90;4.20;;;13.00;99.90;;;;;;5089173;28;20842;-58
2022/06/21 03:20:31;;;;;;;13.23;4.40;;;13.00;99.90;;;;;;5087091;28;20888;-59
2022/06/21 03:22:57;;;;;;;12.77;4.00;;;13.00;99.90;;;;;;5088229;28;20471;-59
2022/06/21 03:25:29;;;;;;;16.10;4.18;;;12.90;99.90;;;;;;5088545;28;20713;-58
2022/06/21 03:27:59;;;;;;;15.02;3.92;;;12.90;99.90;;;;;;5088649;28;20762;-56
2022/06/21 03:30:28;;;;;;;16.98;4.40;;;13.00;99.90;;;;;;5088480;28;20761;-58
2022/06/21 03:32:56;;;;;;;15.63;3.90;;;13.00;99.90;;;;;;5088319;28;20414;-58
2022/06/21 03:35:25;;;;;;;17.98;4.03;;;13.00;99.90;;;;;;5088251;28;20440;-58
2022/06/21 03:37:50;;;;;;;13.32;3.63;;;13.00;99.90;;;;;;5089169;28;20844;-56
2022/06/21 03:43:31;;;;;;;19.10;4.27;;;13.00;99.90;;;;;;5090705;28;20527;-56
2022/06/21 03:46:01;;;;;;;11.98;4.00;;;13.10;99.90;;;;;;5090395;28;20406;-57
2022/06/21 03:48:48;;;;;;;14.60;3.28;;;13.00;99.90;;;;;;5090647;28;20484;-57
2022/06/21 03:51:24;;;;;;;14.98;3.80;;;13.00;99.90;;;;;;5091103;28;20394;-58
2022/06/21 03:54:08;;;;;;;15.02;3.90;;;13.00;99.90;;;;;;5091893;28;20499;-56
2022/06/21 03:56:41;;;;;;;13.27;3.40;;;13.00;99.90;;;;;;5089070;28;20481;-58
2022/06/21 03:59:34;;;;;;;12.93;3.53;;;13.10;99.90;;;;;;5088779;28;20535;-57
2022/06/21 04:02:18;;;;;;;10.63;3.23;;;13.10;99.90;;;;;;5087048;28;20477;-58
2022/06/21 04:04:53;;;;;;;11.10;3.50;;;13.10;99.90;;;;;;5089994;28;20446;-58
2022/06/21 04:07:39;;;;;;;15.07;4.18;;;13.10;99.90;;;;;;5087655;28;20762;-58
2022/06/21 04:10:16;;;;;;;12.90;2.97;;;13.10;99.90;;;;;;5087135;28;20563;-57
2022/06/21 04:12:55;;;;;;;16.42;3.30;;;13.10;99.90;;;;;;5084993;28;20409;-58
2022/06/21 04:15:23;;;;;;;13.90;3.67;;;13.10;99.90;;;;;;5084261;28;20402;-57
2022/06/21 04:18:13;;;;;;;12.88;3.00;;;13.10;99.90;;;;;;5083549;28;20532;-58
2022/06/21 04:21:04;;;;;;;12.18;3.35;;;13.20;99.90;;;;;;5082477;28;20460;-59
2022/06/21 04:23:57;;;;;;;13.50;3.35;;;13.20;99.90;;;;;;5080009;28;20704;-58
2022/06/21 04:26:39;;;;;;;15.43;3.90;;;13.20;99.90;;;;;;5080934;28;20578;-57
2022/06/21 04:29:28;;;;;;;12.88;3.10;;;13.20;99.90;;;;;;5081975;28;20374;-57
2022/06/21 04:31:57;;;;;;;12.17;3.23;;;13.20;99.90;;;;;;5081846;28;20723;-57
2022/06/21 04:34:43;;;;;;;11.43;3.60;;;13.20;99.90;;;;;;5083401;28;20551;-58
2022/06/21 04:37:21;;;;;;;12.40;3.13;;;13.30;99.90;;;;;;5083472;28;20681;-58
2022/06/21 04:39:53;;;;;;;9.50;2.85;;;13.30;99.90;;;;;;5086150;28;20454;-55
2022/06/21 04:42:36;;;;;;;11.60;3.38;;;13.30;99.90;;;;;;5083492;28;20390;-57
2022/06/21 04:45:17;;;;;;;12.05;2.90;;;13.40;99.90;;;;;;5086591;28;20847;-58
2022/06/21 04:47:49;;;;;;;10.32;2.45;;;13.40;99.90;;;;;;5084029;28;20382;-57
2022/06/21 04:50:14;;;;;;;12.40;3.00;;;13.40;99.90;;;;;;5082905;28;20828;-56
2022/06/21 04:52:50;;;;;;;9.50;2.80;;;13.40;99.90;;;;;;5085516;28;20382;-58
2022/06/21 04:55:17;;;;;;;12.88;3.35;;;13.40;99.90;;;;;;5086917;28;20370;-59
2022/06/21 04:57:45;;;;;;;11.50;2.72;;;13.40;99.90;;;;;;5085123;28;20381;-57
2022/06/21 05:00:16;;;;;;;11.30;2.83;;;13.40;99.90;;;;;;5081160;28;20425;-57
2022/06/21 05:02:47;;;;;;;13.10;3.35;;;13.50;99.90;;;;;;5078973;28;20385;-57
2022/06/21 05:05:21;;;;;;;15.60;3.30;;;13.50;99.90;;;;;;5079533;28;20439;-58
2022/06/21 05:07:51;;;;;;;13.00;3.63;;;13.50;99.90;;;;;;5079820;28;20390;-58
2022/06/21 05:10:20;;;;;;;11.13;2.90;;;13.50;99.90;;;;;;5080472;28;20688;-58
2022/06/21 05:12:50;;;;;;;12.98;3.58;;;13.60;99.90;;;;;;5081949;28;20389;-55
2022/06/21 05:15:20;;;;;;;13.27;3.47;;;13.60;99.90;;;;;;5081442;28;20371;-55
2022/06/21 05:17:54;;;;;;;16.00;3.10;;;13.70;99.90;;;;;;5084394;28;20434;-57
2022/06/21 05:20:25;;;;;;;9.00;2.73;;;13.70;99.90;;;;;;5064907;28;20817;-58
2022/06/21 05:22:54;;;;;;;14.10;3.80;;;13.80;99.90;;;;;;5085588;28;20385;-57
2022/06/21 05:25:35;;;;;;;7.57;2.22;;;13.80;99.90;;;;;;5086205;28;20366;-57
2022/06/21 05:28:13;;;;;;;11.98;2.85;;;13.90;99.90;;;;;;5087148;28;20647;-56
2022/06/21 05:30:53;;;;;;;14.13;3.47;;;14.00;99.90;;;;;;5089007;28;20378;-58
2022/06/21 05:33:32;;;;;;;12.40;2.80;;;14.00;99.90;;;;;;5085824;28;20404;-57
2022/06/21 05:35:58;;;;;;;9.65;2.78;;;13.90;99.90;;;;;;5084135;28;20635;-56
2022/06/21 05:38:27;;;;;;;8.35;2.85;;;14.00;99.90;;;;;;5081154;28;20425;-58
2022/06/21 05:40:57;;;;;;;11.63;2.65;;;14.00;99.90;;;;;;5082822;28;20378;-58
2022/06/21 05:43:34;;;;;;;11.43;2.95;;;14.00;99.90;;;;;;5080277;28;21032;-55
2022/06/21 05:46:02;;;;;;;12.85;3.00;;;14.10;99.90;;;;;;5080083;28;20408;-56
2022/06/21 05:48:32;;;;;;;14.43;3.53;;;14.10;99.90;;;;;;5082005;28;20483;-58
2022/06/21 05:51:00;;;;;;;13.25;3.33;;;14.20;99.90;;;;;;5082885;28;20443;-57
2022/06/21 05:53:31;;;;;;;11.77;2.92;;;14.10;99.90;;;;;;5084185;28;20386;-57
2022/06/21 05:56:03;;;;;;;7.55;2.60;;;14.20;99.90;;;;;;5086422;28;20390;-58
2022/06/21 05:58:33;;;;;;;10.57;3.05;;;14.20;99.90;;;;;;5083659;28;20424;-58
2022/06/21 06:01:21;;;;;;;11.90;3.13;;;14.30;99.90;;;;;;5085864;28;20687;-58
2022/06/21 06:03:56;;;;;;;9.30;2.47;;;14.30;99.90;;;;;;5082252;28;20451;-58
2022/06/21 06:06:22;;;;;;;11.13;2.90;;;14.30;99.90;;;;;;5083443;28;20676;-57
2022/06/21 06:09:00;;;;;;;10.80;4.00;;;14.40;99.90;;;;;;5081609;28;20529;-55
2022/06/21 06:11:57;;;;;;;10.23;2.83;;;14.40;99.90;;;;;;5081310;28;20429;-58
2022/06/21 06:14:19;;;;;;;10.23;2.83;;;14.40;99.90;;;;;;5081064;28;20374;-58
2022/06/21 06:16:50;;;;;;;10.07;2.60;;;14.40;99.90;;;;;;5079145;28;20678;-58
2022/06/21 06:19:31;;;;;;;6.83;2.50;;;14.50;99.90;;;;;;5077128;28;20812;-58
2022/06/21 06:22:06;;;;;;;15.52;3.45;;;14.60;99.90;;;;;;5077811;28;20785;-57
2022/06/21 06:24:36;;;;;;;9.00;2.28;;;14.60;99.90;;;;;;5079180;28;20390;-57
2022/06/21 06:27:05;;;;;;;6.70;2.00;;;14.60;99.90;;;;;;5079097;28;20809;-56
2022/06/21 06:29:38;;;;;;;9.15;2.50;;;14.70;99.90;;;;;;5078446;28;20837;-57
2022/06/21 06:32:16;;;;;;;7.65;2.35;;;14.70;99.90;;;;;;5079876;28;20410;-59
2022/06/21 06:34:46;;;;;;;7.13;2.38;;;14.70;99.90;;;;;;5106546;28;20947;-59
2022/06/21 06:37:36;;;;;;;11.25;2.90;;;14.80;99.90;;;;;;5106807;28;20380;-58
2022/06/21 06:40:05;;;;;;;10.50;2.85;;;14.80;99.90;;;;;;5105939;28;20380;-57
2022/06/21 06:42:34;;;;;;;11.85;2.60;;;14.80;99.90;;;;;;5102906;28;20423;-58
2022/06/21 06:45:06;;;;;;;11.32;2.60;;;14.80;99.90;;;;;;5101622;28;20373;-57
2022/06/21 06:47:36;;;;;;;10.60;2.77;;;14.90;99.90;;;;;;5104432;28;20497;-56
2022/06/21 06:50:26;;;;;;;7.38;2.15;;;14.80;99.90;;;;;;5104263;28;20464;-59
2022/06/21 06:53:13;;;;;;;8.40;2.28;;;14.90;99.90;;;;;;5103883;28;20380;-58
2022/06/21 06:55:48;;;;;;;7.93;2.38;;;14.90;99.90;;;;;;5104491;28;20372;-59
2022/06/21 06:58:23;;;;;;;9.20;2.63;;;15.00;99.90;;;;;;5107400;28;20402;-58
2022/06/21 07:00:57;;;;;;;10.90;3.05;;;15.00;99.90;;;;;;5106519;28;20961;-55
2022/06/21 07:03:27;;;;;;;9.82;2.80;;;15.10;99.90;;;;;;5106349;28;20396;-59
2022/06/21 07:06:04;;;;;;;12.75;2.88;;;15.10;99.90;;;;;;5105876;28;20713;-58
2022/06/21 07:08:40;;;;;;;13.00;2.88;;;15.10;99.90;;;;;;5101645;28;20679;-57
2022/06/21 07:11:16;;;;;;;8.75;2.33;;;15.20;99.90;;;;;;5105057;28;20923;-58
2022/06/21 07:13:42;;;;;;;6.88;2.05;;;15.30;99.90;;;;;;5101412;28;20376;-59
2022/06/21 07:16:13;;;;;;;9.73;2.53;;;15.40;99.90;;;;;;5095960;28;20691;-59
2022/06/21 07:18:46;;;;;;;6.55;1.80;;;15.40;99.90;;;;;;5095705;28;20632;-58
2022/06/21 07:21:13;;;;;;;5.15;1.85;;;15.40;99.90;;;;;;5094282;28;20400;-59
2022/06/21 07:23:39;;;;;;;7.50;2.53;;;15.50;99.90;;;;;;5097030;28;20412;-58
2022/06/21 07:26:17;;;;;;;8.23;2.40;;;15.50;99.90;;;;;;5094883;28;20886;-56
2022/06/21 07:28:48;;;;;;;9.25;2.38;;;15.60;99.90;;;;;;5094414;28;20484;-58
2022/06/21 07:31:24;;;;;;;9.38;2.67;;;15.60;99.90;;;;;;5094084;28;20372;-58
2022/06/21 07:34:01;;;;;;;9.10;2.83;;;15.60;99.90;;;;;;5091383;28;20384;-56
2022/06/21 07:36:59;;;;;;;8.63;2.50;;;15.60;99.90;;;;;;5092335;28;20711;-58
2022/06/21 07:39:49;;;;;;;6.22;2.03;;;15.60;99.90;;;;;;5091004;28;20498;-58
2022/06/21 07:42:18;;;;;;;4.40;1.70;;;15.70;99.90;;;;;;5091363;28;20771;-58
2022/06/21 07:44:53;;;;;;;8.50;2.50;;;15.80;99.90;;;;;;5088690;28;20641;-59
2022/06/21 07:47:29;;;;;;;9.65;2.60;;;15.90;99.90;;;;;;5088655;28;20388;-57
2022/06/21 07:49:59;;;;;;;5.85;1.70;;;15.90;99.90;;;;;;5090347;28;20730;-56
2022/06/21 07:52:37;;;;;;;9.07;2.47;;;16.00;99.90;;;;;;5089273;28;20388;-57
2022/06/21 07:55:13;;;;;;;4.78;1.85;;;15.90;99.90;;;;;;5093171;28;20412;-57
2022/06/21 07:57:46;;;;;;;7.80;2.10;;;16.00;99.90;;;;;;5094014;28;20388;-56
2022/06/21 08:00:19;;;;;;;5.55;1.70;;;16.10;99.90;;;;;;5092053;28;20383;-56
2022/06/21 08:08:55;;;;;;;9.57;2.50;;;16.10;99.90;;;;;;5094951;28;20864;-57
2022/06/21 08:11:28;;;;;;;8.32;2.45;;;16.20;99.90;;;;;;5085711;28;20476;-57
2022/06/21 08:13:54;;;;;;;8.90;2.70;;;16.30;99.90;;;;;;5093271;28;20403;-55
2022/06/21 08:16:26;;;;;;;8.47;2.53;;;16.30;99.90;;;;;;5096242;28;20380;-58
2022/06/21 08:19:05;;;;;;;6.90;2.15;;;16.30;99.90;;;;;;5098241;28;20411;-56
2022/06/21 08:21:39;;;;;;;7.80;2.10;;;16.40;99.90;;;;;;5097794;28;20444;-58
2022/06/21 08:24:14;;;;;;;7.03;2.00;;;16.50;99.90;;;;;;5099590;28;20930;-57
2022/06/21 08:26:50;;;;;;;7.60;1.77;;;16.40;99.90;;;;;;5097606;28;20521;-55
2022/06/21 08:29:32;;;;;;;5.43;1.95;;;16.50;99.90;;;;;;5095603;28;20950;-58
2022/06/21 08:32:12;;;;;;;8.95;2.40;;;16.50;99.90;;;;;;5094388;28;20380;-58
2022/06/21 08:34:47;;;;;;;4.13;1.57;;;16.50;99.90;;;;;;5089889;28;20439;-57
2022/06/21 08:37:21;;;;;;;7.65;1.95;;;16.50;99.90;;;;;;5089261;28;20415;-56
2022/06/21 08:39:57;;;;;;;7.00;2.03;;;16.60;99.90;;;;;;5089146;28;20491;-57
2022/06/21 08:42:44;;;;;;;6.43;2.10;;;16.70;99.90;;;;;;5090430;28;20650;-58
2022/06/21 08:45:42;;;;;;;5.70;2.03;;;16.70;99.90;;;;;;5093038;28;20380;-57
2022/06/21 08:48:19;;;;;;;6.38;1.70;;;16.80;99.90;;;;;;5091991;28;20377;-57
2022/06/21 08:51:09;;;;;;;5.63;1.95;;;16.80;99.90;;;;;;5093452;28;20391;-58
2022/06/21 08:53:55;;;;;;;7.73;2.07;;;16.80;99.90;;;;;;5094865;28;20387;-58
2022/06/21 08:56:55;;;;;;;5.38;2.25;;;16.90;99.90;;;;;;5097797;28;20376;-58
2022/06/21 08:59:38;;;;;;;5.72;1.95;;;17.00;99.90;;;;;;5093884;28;20503;-57
2022/06/21 09:02:19;;;;;;;5.78;1.90;;;17.10;99.90;;;;;;5101079;28;20376;-56
2022/06/21 09:05:16;;;;;;;5.57;1.90;;;17.20;99.90;;;;;;5100492;28;20420;-58
2022/06/21 09:08:08;;;;;;;5.95;2.10;;;17.20;99.90;;;;;;5100159;28;20400;-56
2022/06/21 09:10:39;;;;;;;6.70;2.33;;;17.10;99.90;;;;;;5073041;28;20407;-56
2022/06/21 09:13:16;;;;;;;6.45;2.10;;;17.20;99.90;;;;;;5106993;28;20380;-56
2022/06/21 09:16:17;;;;;;;7.95;2.08;;;17.30;99.90;;;;;;5107369;28;20379;-57
2022/06/21 09:19:15;;;;;;;5.47;1.80;;;17.40;99.90;;;;;;5108271;28;20379;-57
2022/06/21 09:21:57;;;;;;;8.73;2.05;;;17.40;99.90;;;;;;5083521;28;20392;-57
2022/06/21 09:24:47;;;;;;;7.43;1.70;;;17.50;99.90;;;;;;5109058;28;20385;-58
2022/06/21 09:27:18;;;;;;;6.18;1.70;;;17.50;99.90;;;;;;5107660;28;20392;-58
2022/06/21 09:30:08;;;;;;;6.82;2.08;;;17.50;99.90;;;;;;5110290;28;20602;-58
2022/06/21 09:33:04;;;;;;;6.53;1.90;;;17.60;99.90;;;;;;5109568;28;20375;-58
2022/06/21 09:35:43;;;;;;;6.40;2.25;;;17.60;99.90;;;;;;5110887;28;20395;-57
2022/06/21 09:38:18;;;;;;;7.15;2.30;;;17.70;99.90;;;;;;5111049;28;20390;-53
2022/06/21 09:41:07;;;;;;;5.47;2.10;;;17.80;99.90;;;;;;5112862;28;20384;-57
2022/06/21 09:44:01;;;;;;;4.50;1.70;;;17.90;99.90;;;;;;5112688;28;20924;-56
2022/06/21 09:46:40;;;;;;;6.50;2.28;;;17.90;99.90;;;;;;5111337;28;20404;-58
2022/06/21 09:49:16;;;;;;;7.60;2.00;;;18.00;99.90;;;;;;5110467;28;20392;-58
2022/06/21 09:52:07;;;;;;;9.23;2.30;;;18.20;99.90;;;;;;5101828;28;20392;-59
2022/06/21 09:54:38;;;;;;;7.55;1.90;;;18.20;99.90;;;;;;5103610;28;20396;-57
2022/06/21 09:57:42;;;;;;;8.70;1.90;;;18.20;99.90;;;;;;5107151;28;20475;-57
2022/06/21 10:00:23;;;;;;;4.53;1.73;;;18.30;99.90;;;;;;5106923;28;20392;-59
2022/06/21 10:03:11;;;;;;;5.07;1.80;;;18.50;99.90;;;;;;5104899;28;20475;-58
2022/06/21 10:05:56;;;;;;;5.32;1.73;;;18.60;99.90;;;;;;5102805;28;20481;-59
2022/06/21 10:08:44;;;;;;;5.50;1.75;;;18.50;99.90;;;;;;5101072;28;20567;-59
2022/06/21 10:11:42;;;;;;;6.43;2.10;;;18.40;99.90;;;;;;5104091;28;20779;-59
2022/06/21 10:14:23;;;;;;;6.00;1.63;;;18.30;99.90;;;;;;5098847;28;20664;-57
2022/06/21 10:17:08;;;;;;;3.80;1.38;;;18.50;99.90;;;;;;5095181;28;20384;-58
2022/06/21 10:19:55;;;;;;;4.07;1.80;;;18.50;99.90;;;;;;5097870;28;20495;-58
2022/06/21 10:22:35;;;;;;;5.57;1.60;;;18.50;99.90;;;;;;5097362;28;20484;-58
2022/06/21 10:25:14;;;;;;;5.50;1.65;;;18.60;99.90;;;;;;5101183;28;20658;-58
2022/06/21 10:28:14;;;;;;;5.50;1.52;;;18.60;99.90;;;;;;5099109;28;20469;-57
2022/06/21 10:30:58;;;;;;;6.97;1.85;;;18.70;99.90;;;;;;5100719;28;20387;-57
2022/06/21 10:33:52;;;;;;;6.13;1.90;;;18.70;99.90;;;;;;5094978;28;20486;-57
2022/06/21 10:36:25;;;;;;;6.72;1.80;;;18.70;99.90;;;;;;5099285;28;20725;-57
2022/06/21 10:39:09;;;;;;;6.25;1.50;;;18.80;99.90;;;;;;5101512;28;20775;-57
2022/06/21 10:41:39;;;;;;;5.80;1.80;;;18.70;99.90;;;;;;5097614;28;20395;-56
2022/06/21 10:44:22;;;;;;;6.17;1.77;;;18.80;99.90;;;;;;5100005;28;20421;-58
2022/06/21 10:46:50;;;;;;;6.50;1.80;;;18.80;99.90;;;;;;5099390;28;20921;-59
2022/06/21 10:49:35;;;;;;;3.85;1.50;;;18.90;99.90;;;;;;5100284;28;20380;-59
2022/06/21 10:52:07;;;;;;;3.50;1.48;;;18.90;99.90;;;;;;5096183;28;20396;-58
2022/06/21 10:54:41;;;;;;;4.07;1.75;;;18.90;99.90;;;;;;5090004;28;20408;-58
2022/06/21 10:57:18;;;;;;;4.10;1.50;;;18.90;99.90;;;;;;5092108;28;20381;-58
2022/06/21 11:02:59;;;;;;;4.72;1.50;;;19.10;99.90;;;;;;5090506;28;20372;-57
2022/06/21 11:06:13;;;;;;;4.45;1.58;;;19.00;99.90;;;;;;5090094;28;20803;-58
2022/06/21 11:09:07;;;;;;;4.45;1.20;;;19.10;99.90;;;;;;5091235;28;20398;-58
2022/06/21 11:11:47;;;;;;;4.55;1.90;;;19.20;99.90;;;;;;5092759;28;20643;-58
2022/06/21 11:14:34;;;;;;;6.63;1.50;;;19.30;99.90;;;;;;5094903;28;20494;-57
2022/06/21 11:17:23;;;;;;;4.20;1.60;;;19.40;99.90;;;;;;5096789;28;20475;-56
2022/06/21 11:20:12;;;;;;;6.18;1.58;;;19.40;99.90;;;;;;5096073;28;20404;-57
2022/06/21 11:23:10;;;;;;;3.45;1.58;;;19.50;99.90;;;;;;5094709;28;20384;-58
2022/06/21 11:25:48;;;;;;;5.18;2.10;;;19.70;99.90;;;;;;5096192;28;20441;-56
2022/06/21 11:28:50;;;;;;;4.90;1.70;;;19.60;99.90;;;;;;5093869;28;20818;-58
2022/06/21 11:31:37;;;;;;;4.93;1.30;;;19.60;99.90;;;;;;5093016;28;20387;-58
2022/06/21 11:34:34;;;;;;;3.43;1.50;;;19.70;99.90;;;;;;5090157;28;20915;-58
2022/06/21 11:37:15;;;;;;;3.65;1.33;;;19.70;99.90;;;;;;5079425;28;20556;-58
2022/06/21 11:40:00;;;;;;;9.97;2.27;;;19.80;99.90;;;;;;5090559;28;20489;-58
2022/06/21 11:42:54;;;;;;;7.97;2.20;;;20.00;99.90;;;;;;5098773;28;20452;-58
2022/06/21 11:45:45;;;;;;;6.07;2.10;;;20.20;99.90;;;;;;5097254;28;20807;-58
2022/06/21 11:48:35;;;;;;;3.95;1.63;;;20.30;99.90;;;;;;5098760;28;20384;-58
2022/06/21 11:51:10;;;;;;;5.47;1.73;;;20.60;99.90;;;;;;5098699;28;20384;-57
2022/06/21 11:53:57;;;;;;;8.25;1.95;;;20.80;99.90;;;;;;5101573;28;20376;-57
2022/06/21 11:56:35;;;;;;;6.53;1.77;;;21.20;99.90;;;;;;5104208;28;20377;-59
2022/06/21 11:59:24;;;;;;;5.10;1.80;;;21.30;99.90;;;;;;5103060;28;20376;-59
2022/06/21 12:02:14;;;;;;;3.95;1.65;;;21.10;99.90;;;;;;5102239;28;20395;-59
2022/06/21 12:04:49;;;;;;;4.60;1.73;;;21.00;99.90;;;;;;5102440;28;20408;-59
2022/06/21 12:07:25;;;;;;;7.20;1.80;;;21.00;99.90;;;;;;5103301;28;20415;-58
2022/06/21 12:10:07;;;;;;;3.75;1.50;;;20.90;99.90;;;;;;5104390;28;20408;-59
2022/06/21 12:12:51;;;;;;;2.97;1.60;;;20.90;99.90;;;;;;5103736;28;20376;-59
2022/06/21 12:15:32;;;;;;;3.20;1.23;;;21.20;99.90;;;;;;5105274;28;20376;-57
2022/06/21 12:18:04;;;;;;;3.53;1.70;;;21.70;99.90;;;;;;5104025;28;20440;-59
2022/06/21 12:20:51;;;;;;;3.67;1.52;;;21.70;99.90;;;;;;5105027;28;20424;-58
2022/06/21 12:23:41;;;;;;;4.40;1.60;;;21.60;99.90;;;;;;5105367;28;20384;-59
2022/06/21 12:26:10;;;;;;;5.18;1.60;;;21.70;99.90;;;;;;5103527;28;20460;-56
2022/06/21 12:28:37;;;;;;;1.95;1.10;;;21.90;99.90;;;;;;5105018;28;20373;-58
2022/06/21 12:31:28;;;;;;;3.45;1.30;;;22.40;99.90;;;;;;5102885;28;20380;-59
2022/06/21 12:34:01;;;;;;;1.92;1.10;;;22.90;99.90;;;;;;5105182;28;20410;-58
2022/06/21 12:36:43;;;;;;;3.70;1.52;;;23.30;99.90;;;;;;5102672;28;20384;-59
2022/06/21 12:39:22;;;;;;;4.73;1.50;;;23.20;99.90;;;;;;5104998;28;20384;-58
2022/06/21 12:42:25;;;;;;;4.20;1.65;;;23.10;99.90;;;;;;5106068;28;20368;-59
2022/06/21 12:45:05;;;;;;;4.18;1.50;;;23.10;99.90;;;;;;5103667;28;20384;-59
2022/06/21 12:47:54;;;;;;;5.13;1.67;;;23.00;99.90;;;;;;5102727;28;20511;-59
2022/06/21 12:50:51;;;;;;;2.47;1.20;;;23.00;99.90;;;;;;5102753;28;20479;-59
2022/06/21 12:53:49;;;;;;;5.55;2.00;;;23.00;99.90;;;;;;5104129;28;20395;-59
2022/06/21 12:56:39;;;;;;;2.20;1.10;;;22.90;99.90;;;;;;5102907;28;20392;-59
2022/06/21 12:59:49;;;;;;;4.75;1.60;;;23.10;99.90;;;;;;5104339;28;20385;-59
2022/06/21 13:02:36;;;;;;;4.00;1.30;;;23.20;99.90;;;;;;5067926;28;20477;-59
2022/06/21 13:05:35;;;;;;;5.35;1.95;;;23.70;99.90;;;;;;5107972;28;20443;-59
2022/06/21 13:08:19;;;;;;;3.97;1.65;;;23.00;99.90;;;;;;5108110;28;20449;-58
2022/06/21 13:11:08;;;;;;;5.50;1.70;;;23.40;99.90;;;;;;5108761;28;20483;-59
2022/06/21 13:14:12;;;;;;;4.22;1.63;;;23.70;99.90;;;;;;5105448;28;20387;-59
2022/06/21 13:16:53;;;;;;;2.80;1.10;;;24.10;99.90;;;;;;5103123;28;20787;-57
2022/06/21 13:19:45;;;;;;;4.90;1.80;;;24.30;99.90;;;;;;5102582;28;20384;-58
2022/06/21 13:22:42;;;;;;;2.47;1.20;;;24.50;99.90;;;;;;5101281;28;20809;-58
2022/06/21 13:25:40;;;;;;;4.63;1.60;;;24.60;99.90;;;;;;5098244;28;20380;-58
2022/06/21 13:28:17;;;;;;;5.18;1.60;;;25.10;99.90;;;;;;5101348;28;20393;-57
2022/06/21 13:31:02;;;;;;;4.13;1.30;;;24.70;99.90;;;;;;5102134;28;20376;-58
2022/06/21 13:34:04;;;;;;;2.67;1.30;;;24.70;99.90;;;;;;5104800;28;20385;-59
2022/06/21 13:36:40;;;;;;;2.85;0.95;;;24.70;99.90;;;;;;5105319;28;20384;-59
2022/06/21 13:39:26;;;;;;;2.70;1.33;;;25.10;99.90;;;;;;5103351;28;20751;-56
2022/06/21 13:44:52;;;;;;;4.47;1.40;;;25.30;99.90;;;;;;5103267;28;20565;-58
2022/06/21 13:47:32;;;;;;;2.57;1.13;;;25.20;99.90;;;;;;5103284;28;20400;-57
2022/06/21 13:50:05;;;;;;;5.88;1.75;;;25.10;99.90;;;;;;5101869;28;20395;-59
2022/06/21 13:52:54;;;;;;;4.55;1.70;;;25.10;99.90;;;;;;5101739;28;20852;-57
2022/06/21 13:55:28;;;;;;;7.30;1.47;;;25.40;99.90;;;;;;5099497;28;20410;-58
2022/06/21 13:58:08;;;;;;;1.75;1.02;;;26.00;99.90;;;;;;5088253;28;20905;-58